sensor_id;sensor_type;location;lat;lon;timestamp;P1;durP1;ratioP1;P2;durP2;ratioP2
80725;SDS011;70113;59.928;10.878;2023-09-08T00:02:02;17.85;;;12.45;;
80725;SDS011;70113;59.928;10.878;2023-09-08T00:04:28;18.13;;;13.13;;
80725;SDS011;70113;59.928;10.878;2023-09-08T00:06:54;20.17;;;13.20;;
80725;SDS011;70113;59.928;10.878;2023-09-08T00:09:20;18.67;;;13.07;;
80725;SDS011;70113;59.928;10.878;2023-09-08T00:11:45;20.38;;;12.43;;
80725;SDS011;70113;59.928;10.878;2023-09-08T00:14:11;19.67;;;13.52;;
80725;SDS011;70113;59.928;10.878;2023-09-08T00:16:36;18.10;;;12.13;;
80725;SDS011;70113;59.928;10.878;2023-09-08T00:19:04;18.02;;;12.00;;
80725;SDS011;70113;59.928;10.878;2023-09-08T00:21:30;17.92;;;12.45;;
80725;SDS011;70113;59.928;10.878;2023-09-08T00:23:56;18.27;;;13.05;;
80725;SDS011;70113;59.928;10.878;2023-09-08T00:26:21;18.33;;;13.52;;
80725;SDS011;70113;59.928;10.878;2023-09-08T00:28:47;22.10;;;13.98;;
80725;SDS011;70113;59.928;10.878;2023-09-08T00:31:13;20.88;;;14.68;;
80725;SDS011;70113;59.928;10.878;2023-09-08T00:33:39;23.85;;;14.77;;
80725;SDS011;70113;59.928;10.878;2023-09-08T00:36:07;23.92;;;14.80;;
80725;SDS011;70113;59.928;10.878;2023-09-08T00:38:33;24.77;;;15.23;;
80725;SDS011;70113;59.928;10.878;2023-09-08T00:40:59;20.73;;;13.77;;
80725;SDS011;70113;59.928;10.878;2023-09-08T00:43:26;21.75;;;14.18;;
80725;SDS011;70113;59.928;10.878;2023-09-08T00:45:52;24.08;;;14.23;;
80725;SDS011;70113;59.928;10.878;2023-09-08T00:48:19;21.15;;;13.82;;
80725;SDS011;70113;59.928;10.878;2023-09-08T00:50:45;19.30;;;13.13;;
80725;SDS011;70113;59.928;10.878;2023-09-08T00:53:11;19.75;;;13.38;;
80725;SDS011;70113;59.928;10.878;2023-09-08T00:55:37;17.60;;;11.80;;
80725;SDS011;70113;59.928;10.878;2023-09-08T00:58:04;19.33;;;13.27;;
80725;SDS011;70113;59.928;10.878;2023-09-08T01:00:30;20.70;;;13.40;;
80725;SDS011;70113;59.928;10.878;2023-09-08T01:02:58;21.50;;;13.40;;
80725;SDS011;70113;59.928;10.878;2023-09-08T01:05:23;21.25;;;13.95;;
80725;SDS011;70113;59.928;10.878;2023-09-08T01:07:49;19.55;;;13.93;;
80725;SDS011;70113;59.928;10.878;2023-09-08T01:10:16;20.27;;;13.73;;
80725;SDS011;70113;59.928;10.878;2023-09-08T01:12:42;19.00;;;11.90;;
80725;SDS011;70113;59.928;10.878;2023-09-08T01:15:07;17.38;;;12.35;;
80725;SDS011;70113;59.928;10.878;2023-09-08T01:17:34;19.75;;;12.43;;
80725;SDS011;70113;59.928;10.878;2023-09-08T01:20:01;22.77;;;13.45;;
80725;SDS011;70113;59.928;10.878;2023-09-08T01:22:54;21.35;;;13.90;;
80725;SDS011;70113;59.928;10.878;2023-09-08T01:25:28;19.98;;;12.60;;
80725;SDS011;70113;59.928;10.878;2023-09-08T01:27:55;19.00;;;13.45;;
80725;SDS011;70113;59.928;10.878;2023-09-08T01:30:26;21.50;;;13.80;;
80725;SDS011;70113;59.928;10.878;2023-09-08T01:32:54;19.90;;;13.50;;
80725;SDS011;70113;59.928;10.878;2023-09-08T01:35:20;23.70;;;15.20;;
80725;SDS011;70113;59.928;10.878;2023-09-08T01:37:47;20.52;;;13.68;;
80725;SDS011;70113;59.928;10.878;2023-09-08T01:40:14;24.35;;;15.15;;
80725;SDS011;70113;59.928;10.878;2023-09-08T01:42:41;20.63;;;14.45;;
80725;SDS011;70113;59.928;10.878;2023-09-08T01:45:07;22.88;;;14.50;;
80725;SDS011;70113;59.928;10.878;2023-09-08T01:47:34;19.95;;;13.82;;
80725;SDS011;70113;59.928;10.878;2023-09-08T01:50:00;21.48;;;14.63;;
80725;SDS011;70113;59.928;10.878;2023-09-08T01:52:26;26.77;;;15.85;;
80725;SDS011;70113;59.928;10.878;2023-09-08T01:54:52;23.65;;;14.85;;
80725;SDS011;70113;59.928;10.878;2023-09-08T01:57:18;26.27;;;16.73;;
80725;SDS011;70113;59.928;10.878;2023-09-08T01:59:44;20.55;;;14.63;;
80725;SDS011;70113;59.928;10.878;2023-09-08T02:02:16;24.80;;;15.85;;
80725;SDS011;70113;59.928;10.878;2023-09-08T02:04:42;25.38;;;15.90;;
80725;SDS011;70113;59.928;10.878;2023-09-08T02:07:08;21.65;;;13.95;;
80725;SDS011;70113;59.928;10.878;2023-09-08T02:09:34;21.25;;;14.40;;
80725;SDS011;70113;59.928;10.878;2023-09-08T02:12:02;21.02;;;14.30;;
80725;SDS011;70113;59.928;10.878;2023-09-08T02:14:28;20.80;;;14.45;;
80725;SDS011;70113;59.928;10.878;2023-09-08T02:16:55;18.45;;;12.30;;
80725;SDS011;70113;59.928;10.878;2023-09-08T02:19:20;18.58;;;13.65;;
80725;SDS011;70113;59.928;10.878;2023-09-08T02:21:46;22.98;;;14.88;;
80725;SDS011;70113;59.928;10.878;2023-09-08T02:24:12;22.77;;;13.55;;
80725;SDS011;70113;59.928;10.878;2023-09-08T02:26:38;20.30;;;13.05;;
80725;SDS011;70113;59.928;10.878;2023-09-08T02:29:04;22.63;;;14.55;;
80725;SDS011;70113;59.928;10.878;2023-09-08T02:31:30;19.38;;;13.60;;
80725;SDS011;70113;59.928;10.878;2023-09-08T02:33:56;19.88;;;13.30;;
80725;SDS011;70113;59.928;10.878;2023-09-08T02:36:22;19.73;;;13.25;;
80725;SDS011;70113;59.928;10.878;2023-09-08T02:38:54;19.67;;;13.68;;
80725;SDS011;70113;59.928;10.878;2023-09-08T02:41:22;21.67;;;13.57;;
80725;SDS011;70113;59.928;10.878;2023-09-08T02:43:48;22.92;;;14.90;;
80725;SDS011;70113;59.928;10.878;2023-09-08T02:46:14;21.02;;;14.15;;
80725;SDS011;70113;59.928;10.878;2023-09-08T02:48:40;23.17;;;14.88;;
80725;SDS011;70113;59.928;10.878;2023-09-08T02:51:06;19.55;;;13.07;;
80725;SDS011;70113;59.928;10.878;2023-09-08T02:53:32;20.67;;;13.35;;
80725;SDS011;70113;59.928;10.878;2023-09-08T02:55:59;24.17;;;15.18;;
80725;SDS011;70113;59.928;10.878;2023-09-08T02:58:25;19.50;;;13.98;;
80725;SDS011;70113;59.928;10.878;2023-09-08T03:00:52;19.23;;;12.40;;
80725;SDS011;70113;59.928;10.878;2023-09-08T03:03:18;21.52;;;13.77;;
80725;SDS011;70113;59.928;10.878;2023-09-08T03:05:44;20.85;;;13.38;;
80725;SDS011;70113;59.928;10.878;2023-09-08T03:08:10;18.42;;;11.98;;
80725;SDS011;70113;59.928;10.878;2023-09-08T03:10:36;21.02;;;12.25;;
80725;SDS011;70113;59.928;10.878;2023-09-08T03:13:05;17.48;;;12.65;;
80725;SDS011;70113;59.928;10.878;2023-09-08T03:15:31;20.20;;;12.27;;
80725;SDS011;70113;59.928;10.878;2023-09-08T03:17:57;20.33;;;12.90;;
80725;SDS011;70113;59.928;10.878;2023-09-08T03:20:26;25.35;;;13.85;;
80725;SDS011;70113;59.928;10.878;2023-09-08T03:22:53;19.23;;;12.40;;
80725;SDS011;70113;59.928;10.878;2023-09-08T03:25:20;18.27;;;12.98;;
80725;SDS011;70113;59.928;10.878;2023-09-08T03:27:46;17.50;;;11.57;;
80725;SDS011;70113;59.928;10.878;2023-09-08T03:30:12;19.80;;;12.70;;
80725;SDS011;70113;59.928;10.878;2023-09-08T03:32:38;18.27;;;11.82;;
80725;SDS011;70113;59.928;10.878;2023-09-08T03:35:04;18.33;;;11.18;;
80725;SDS011;70113;59.928;10.878;2023-09-08T03:37:33;18.15;;;11.57;;
80725;SDS011;70113;59.928;10.878;2023-09-08T03:40:00;19.45;;;11.98;;
80725;SDS011;70113;59.928;10.878;2023-09-08T03:42:25;20.25;;;12.63;;
80725;SDS011;70113;59.928;10.878;2023-09-08T03:44:51;18.92;;;11.75;;
80725;SDS011;70113;59.928;10.878;2023-09-08T03:47:17;17.20;;;12.27;;
80725;SDS011;70113;59.928;10.878;2023-09-08T03:49:43;18.90;;;12.18;;
80725;SDS011;70113;59.928;10.878;2023-09-08T03:52:08;18.48;;;11.73;;
80725;SDS011;70113;59.928;10.878;2023-09-08T03:54:34;16.63;;;11.45;;
80725;SDS011;70113;59.928;10.878;2023-09-08T03:57:00;15.55;;;10.73;;
80725;SDS011;70113;59.928;10.878;2023-09-08T03:59:26;17.98;;;11.68;;
80725;SDS011;70113;59.928;10.878;2023-09-08T04:01:51;18.50;;;12.00;;
80725;SDS011;70113;59.928;10.878;2023-09-08T04:04:17;16.27;;;11.18;;
80725;SDS011;70113;59.928;10.878;2023-09-08T04:06:45;15.13;;;10.52;;
80725;SDS011;70113;59.928;10.878;2023-09-08T04:09:11;18.45;;;11.27;;
80725;SDS011;70113;59.928;10.878;2023-09-08T04:11:37;16.15;;;11.13;;
80725;SDS011;70113;59.928;10.878;2023-09-08T04:14:02;16.95;;;10.85;;
80725;SDS011;70113;59.928;10.878;2023-09-08T04:16:28;16.25;;;11.20;;
80725;SDS011;70113;59.928;10.878;2023-09-08T04:18:54;16.10;;;11.18;;
80725;SDS011;70113;59.928;10.878;2023-09-08T04:21:20;17.10;;;11.15;;
80725;SDS011;70113;59.928;10.878;2023-09-08T04:23:45;18.40;;;11.65;;
80725;SDS011;70113;59.928;10.878;2023-09-08T04:26:12;16.17;;;10.70;;
80725;SDS011;70113;59.928;10.878;2023-09-08T04:28:38;16.27;;;11.27;;
80725;SDS011;70113;59.928;10.878;2023-09-08T04:31:03;19.58;;;12.00;;
80725;SDS011;70113;59.928;10.878;2023-09-08T04:33:29;19.30;;;12.40;;
80725;SDS011;70113;59.928;10.878;2023-09-08T04:35:54;19.77;;;12.73;;
80725;SDS011;70113;59.928;10.878;2023-09-08T04:38:20;20.75;;;13.27;;
80725;SDS011;70113;59.928;10.878;2023-09-08T04:40:46;18.85;;;13.00;;
80725;SDS011;70113;59.928;10.878;2023-09-08T04:43:12;18.90;;;12.10;;
80725;SDS011;70113;59.928;10.878;2023-09-08T04:45:38;18.52;;;12.18;;
80725;SDS011;70113;59.928;10.878;2023-09-08T04:48:04;16.33;;;11.13;;
80725;SDS011;70113;59.928;10.878;2023-09-08T04:50:30;17.60;;;11.35;;
80725;SDS011;70113;59.928;10.878;2023-09-08T04:52:56;16.50;;;11.00;;
80725;SDS011;70113;59.928;10.878;2023-09-08T04:55:21;17.40;;;11.27;;
80725;SDS011;70113;59.928;10.878;2023-09-08T04:57:47;16.95;;;11.30;;
80725;SDS011;70113;59.928;10.878;2023-09-08T05:00:13;15.98;;;10.85;;
80725;SDS011;70113;59.928;10.878;2023-09-08T05:02:39;16.13;;;10.55;;
80725;SDS011;70113;59.928;10.878;2023-09-08T05:05:05;14.93;;;10.23;;
80725;SDS011;70113;59.928;10.878;2023-09-08T05:07:31;15.45;;;9.48;;
80725;SDS011;70113;59.928;10.878;2023-09-08T05:09:56;17.98;;;11.00;;
80725;SDS011;70113;59.928;10.878;2023-09-08T05:12:22;15.52;;;10.02;;
80725;SDS011;70113;59.928;10.878;2023-09-08T05:14:48;13.98;;;9.23;;
80725;SDS011;70113;59.928;10.878;2023-09-08T05:17:15;15.38;;;10.32;;
80725;SDS011;70113;59.928;10.878;2023-09-08T05:19:40;16.45;;;10.43;;
80725;SDS011;70113;59.928;10.878;2023-09-08T05:22:06;15.85;;;10.25;;
80725;SDS011;70113;59.928;10.878;2023-09-08T05:24:32;17.63;;;11.40;;
80725;SDS011;70113;59.928;10.878;2023-09-08T05:26:58;18.05;;;11.77;;
80725;SDS011;70113;59.928;10.878;2023-09-08T05:29:23;16.48;;;10.70;;
80725;SDS011;70113;59.928;10.878;2023-09-08T05:31:49;16.10;;;11.00;;
80725;SDS011;70113;59.928;10.878;2023-09-08T05:34:15;19.30;;;10.90;;
80725;SDS011;70113;59.928;10.878;2023-09-08T05:36:41;15.80;;;10.10;;
80725;SDS011;70113;59.928;10.878;2023-09-08T05:39:07;16.63;;;10.57;;
80725;SDS011;70113;59.928;10.878;2023-09-08T05:41:33;16.88;;;10.20;;
80725;SDS011;70113;59.928;10.878;2023-09-08T05:43:59;16.13;;;10.25;;
80725;SDS011;70113;59.928;10.878;2023-09-08T05:46:26;14.65;;;10.00;;
80725;SDS011;70113;59.928;10.878;2023-09-08T05:48:52;15.38;;;10.68;;
80725;SDS011;70113;59.928;10.878;2023-09-08T05:51:18;17.77;;;11.18;;
80725;SDS011;70113;59.928;10.878;2023-09-08T05:53:43;14.85;;;10.73;;
80725;SDS011;70113;59.928;10.878;2023-09-08T05:56:09;16.63;;;11.60;;
80725;SDS011;70113;59.928;10.878;2023-09-08T05:58:35;16.08;;;10.68;;
80725;SDS011;70113;59.928;10.878;2023-09-08T06:01:02;15.73;;;11.15;;
80725;SDS011;70113;59.928;10.878;2023-09-08T06:03:28;17.75;;;11.65;;
80725;SDS011;70113;59.928;10.878;2023-09-08T06:05:54;15.18;;;9.95;;
80725;SDS011;70113;59.928;10.878;2023-09-08T06:08:21;15.85;;;10.18;;
80725;SDS011;70113;59.928;10.878;2023-09-08T06:10:47;14.55;;;9.80;;
80725;SDS011;70113;59.928;10.878;2023-09-08T06:13:12;13.77;;;10.10;;
80725;SDS011;70113;59.928;10.878;2023-09-08T06:15:38;17.73;;;10.38;;
80725;SDS011;70113;59.928;10.878;2023-09-08T06:18:04;14.40;;;8.98;;
80725;SDS011;70113;59.928;10.878;2023-09-08T06:20:30;14.88;;;10.07;;
80725;SDS011;70113;59.928;10.878;2023-09-08T06:22:55;16.20;;;10.73;;
80725;SDS011;70113;59.928;10.878;2023-09-08T06:25:21;12.43;;;8.55;;
80725;SDS011;70113;59.928;10.878;2023-09-08T06:27:47;15.00;;;9.60;;
80725;SDS011;70113;59.928;10.878;2023-09-08T06:30:13;15.00;;;9.77;;
80725;SDS011;70113;59.928;10.878;2023-09-08T06:32:39;15.38;;;10.45;;
80725;SDS011;70113;59.928;10.878;2023-09-08T06:35:05;16.67;;;11.10;;
80725;SDS011;70113;59.928;10.878;2023-09-08T06:37:37;14.70;;;9.18;;
80725;SDS011;70113;59.928;10.878;2023-09-08T06:40:04;18.38;;;11.18;;
80725;SDS011;70113;59.928;10.878;2023-09-08T06:42:30;17.40;;;10.45;;
80725;SDS011;70113;59.928;10.878;2023-09-08T06:44:57;15.60;;;10.05;;
80725;SDS011;70113;59.928;10.878;2023-09-08T06:47:22;15.85;;;10.65;;
80725;SDS011;70113;59.928;10.878;2023-09-08T06:49:48;14.55;;;9.82;;
80725;SDS011;70113;59.928;10.878;2023-09-08T06:52:14;16.38;;;10.68;;
80725;SDS011;70113;59.928;10.878;2023-09-08T06:54:40;16.88;;;11.35;;
80725;SDS011;70113;59.928;10.878;2023-09-08T06:57:05;16.15;;;10.70;;
80725;SDS011;70113;59.928;10.878;2023-09-08T06:59:31;13.80;;;9.40;;
80725;SDS011;70113;59.928;10.878;2023-09-08T07:01:57;16.02;;;10.93;;
80725;SDS011;70113;59.928;10.878;2023-09-08T07:04:23;16.48;;;11.55;;
80725;SDS011;70113;59.928;10.878;2023-09-08T07:06:48;16.27;;;10.50;;
80725;SDS011;70113;59.928;10.878;2023-09-08T07:09:15;19.63;;;11.85;;
80725;SDS011;70113;59.928;10.878;2023-09-08T07:11:41;18.65;;;11.88;;
80725;SDS011;70113;59.928;10.878;2023-09-08T07:14:06;17.45;;;10.77;;
80725;SDS011;70113;59.928;10.878;2023-09-08T07:16:32;15.82;;;11.65;;
80725;SDS011;70113;59.928;10.878;2023-09-08T07:18:58;18.45;;;12.25;;
80725;SDS011;70113;59.928;10.878;2023-09-08T07:21:26;14.48;;;10.95;;
80725;SDS011;70113;59.928;10.878;2023-09-08T07:23:52;15.80;;;11.43;;
80725;SDS011;70113;59.928;10.878;2023-09-08T07:26:19;19.80;;;13.43;;
80725;SDS011;70113;59.928;10.878;2023-09-08T07:28:45;16.58;;;12.05;;
80725;SDS011;70113;59.928;10.878;2023-09-08T07:31:11;17.27;;;11.50;;
80725;SDS011;70113;59.928;10.878;2023-09-08T07:33:37;21.42;;;13.48;;
80725;SDS011;70113;59.928;10.878;2023-09-08T07:36:04;18.50;;;12.85;;
80725;SDS011;70113;59.928;10.878;2023-09-08T07:38:31;18.65;;;11.93;;
80725;SDS011;70113;59.928;10.878;2023-09-08T07:40:57;16.02;;;10.85;;
80725;SDS011;70113;59.928;10.878;2023-09-08T07:43:25;17.20;;;11.77;;
80725;SDS011;70113;59.928;10.878;2023-09-08T07:45:51;18.85;;;12.23;;
80725;SDS011;70113;59.928;10.878;2023-09-08T08:31:43;17.52;;;12.55;;
80725;SDS011;70113;59.928;10.878;2023-09-08T08:34:09;19.83;;;14.02;;
80725;SDS011;70113;59.928;10.878;2023-09-08T08:36:34;16.80;;;12.35;;
80725;SDS011;70113;59.928;10.878;2023-09-08T08:39:00;19.98;;;13.63;;
80725;SDS011;70113;59.928;10.878;2023-09-08T08:41:26;20.30;;;13.60;;
80725;SDS011;70113;59.928;10.878;2023-09-08T08:43:52;17.88;;;12.98;;
80725;SDS011;70113;59.928;10.878;2023-09-08T08:46:18;20.02;;;13.63;;
80725;SDS011;70113;59.928;10.878;2023-09-08T08:48:48;20.25;;;13.80;;
80725;SDS011;70113;59.928;10.878;2023-09-08T08:51:14;19.98;;;12.82;;
80725;SDS011;70113;59.928;10.878;2023-09-08T08:53:43;22.05;;;13.75;;
80725;SDS011;70113;59.928;10.878;2023-09-08T08:56:09;24.60;;;14.85;;
80725;SDS011;70113;59.928;10.878;2023-09-08T08:58:39;19.42;;;13.38;;
80725;SDS011;70113;59.928;10.878;2023-09-08T09:01:05;21.17;;;14.55;;
80725;SDS011;70113;59.928;10.878;2023-09-08T09:03:32;20.00;;;13.55;;
80725;SDS011;70113;59.928;10.878;2023-09-08T09:06:00;21.40;;;13.55;;
80725;SDS011;70113;59.928;10.878;2023-09-08T09:08:27;18.80;;;12.52;;
80725;SDS011;70113;59.928;10.878;2023-09-08T09:10:53;23.20;;;14.05;;
80725;SDS011;70113;59.928;10.878;2023-09-08T09:13:19;21.17;;;13.18;;
80725;SDS011;70113;59.928;10.878;2023-09-08T09:15:45;22.40;;;14.05;;
80725;SDS011;70113;59.928;10.878;2023-09-08T09:18:12;19.00;;;13.63;;
80725;SDS011;70113;59.928;10.878;2023-09-08T09:20:37;23.90;;;14.15;;
80725;SDS011;70113;59.928;10.878;2023-09-08T09:23:03;18.65;;;12.82;;
80725;SDS011;70113;59.928;10.878;2023-09-08T09:25:30;20.52;;;13.77;;
80725;SDS011;70113;59.928;10.878;2023-09-08T09:27:57;21.95;;;14.50;;
80725;SDS011;70113;59.928;10.878;2023-09-08T09:30:24;21.45;;;14.23;;
80725;SDS011;70113;59.928;10.878;2023-09-08T09:33:04;21.58;;;14.68;;
80725;SDS011;70113;59.928;10.878;2023-09-08T09:35:43;19.52;;;13.27;;
80725;SDS011;70113;59.928;10.878;2023-09-08T09:38:10;19.05;;;13.10;;
80725;SDS011;70113;59.928;10.878;2023-09-08T09:40:37;22.95;;;14.70;;
80725;SDS011;70113;59.928;10.878;2023-09-08T09:43:06;22.00;;;14.63;;
80725;SDS011;70113;59.928;10.878;2023-09-08T09:45:33;21.45;;;14.23;;
80725;SDS011;70113;59.928;10.878;2023-09-08T09:47:59;22.70;;;14.88;;
80725;SDS011;70113;59.928;10.878;2023-09-08T09:50:31;23.35;;;14.98;;
80725;SDS011;70113;59.928;10.878;2023-09-08T09:53:07;22.02;;;14.90;;
80725;SDS011;70113;59.928;10.878;2023-09-08T09:55:41;23.77;;;16.00;;
80725;SDS011;70113;59.928;10.878;2023-09-08T09:58:09;21.50;;;14.75;;
80725;SDS011;70113;59.928;10.878;2023-09-08T10:00:39;20.55;;;15.43;;
80725;SDS011;70113;59.928;10.878;2023-09-08T10:03:13;25.95;;;16.42;;
80725;SDS011;70113;59.928;10.878;2023-09-08T10:05:40;25.23;;;16.35;;
80725;SDS011;70113;59.928;10.878;2023-09-08T10:08:05;23.73;;;16.63;;
80725;SDS011;70113;59.928;10.878;2023-09-08T10:10:31;24.85;;;16.95;;
80725;SDS011;70113;59.928;10.878;2023-09-08T10:13:02;23.15;;;17.10;;
80725;SDS011;70113;59.928;10.878;2023-09-08T10:15:31;23.52;;;17.55;;
80725;SDS011;70113;59.928;10.878;2023-09-08T10:17:59;24.98;;;17.73;;
80725;SDS011;70113;59.928;10.878;2023-09-08T10:20:28;24.17;;;17.48;;
80725;SDS011;70113;59.928;10.878;2023-09-08T10:23:12;27.15;;;18.50;;
80725;SDS011;70113;59.928;10.878;2023-09-08T10:25:47;28.83;;;19.92;;
80725;SDS011;70113;59.928;10.878;2023-09-08T10:28:21;25.83;;;18.92;;
80725;SDS011;70113;59.928;10.878;2023-09-08T11:29:47;30.77;;;19.42;;
80725;SDS011;70113;59.928;10.878;2023-09-08T11:32:13;29.75;;;20.33;;
80725;SDS011;70113;59.928;10.878;2023-09-08T11:34:39;27.45;;;19.80;;
80725;SDS011;70113;59.928;10.878;2023-09-08T11:37:09;29.50;;;19.98;;
80725;SDS011;70113;59.928;10.878;2023-09-08T11:39:45;31.98;;;21.75;;
80725;SDS011;70113;59.928;10.878;2023-09-08T11:42:12;30.23;;;21.08;;
80725;SDS011;70113;59.928;10.878;2023-09-08T11:44:39;27.73;;;19.65;;
80725;SDS011;70113;59.928;10.878;2023-09-08T11:47:06;24.33;;;18.58;;
80725;SDS011;70113;59.928;10.878;2023-09-08T11:49:37;29.35;;;20.90;;
80725;SDS011;70113;59.928;10.878;2023-09-08T11:52:04;29.00;;;20.77;;
80725;SDS011;70113;59.928;10.878;2023-09-08T11:54:34;28.55;;;20.42;;
80725;SDS011;70113;59.928;10.878;2023-09-08T11:57:01;28.40;;;21.40;;
80725;SDS011;70113;59.928;10.878;2023-09-08T11:59:30;31.38;;;21.10;;
80725;SDS011;70113;59.928;10.878;2023-09-08T12:01:57;26.60;;;18.52;;
80725;SDS011;70113;59.928;10.878;2023-09-08T12:04:23;30.95;;;19.45;;
80725;SDS011;70113;59.928;10.878;2023-09-08T12:06:51;28.95;;;20.35;;
80725;SDS011;70113;59.928;10.878;2023-09-08T12:09:17;26.67;;;19.67;;
80725;SDS011;70113;59.928;10.878;2023-09-08T12:11:43;29.23;;;20.90;;
80725;SDS011;70113;59.928;10.878;2023-09-08T12:14:10;27.08;;;19.40;;
80725;SDS011;70113;59.928;10.878;2023-09-08T12:16:37;27.40;;;18.17;;
80725;SDS011;70113;59.928;10.878;2023-09-08T12:19:03;28.30;;;19.13;;
80725;SDS011;70113;59.928;10.878;2023-09-08T12:21:29;23.35;;;17.63;;
80725;SDS011;70113;59.928;10.878;2023-09-08T12:23:57;24.65;;;17.92;;
80725;SDS011;70113;59.928;10.878;2023-09-08T12:26:26;23.45;;;18.08;;
80725;SDS011;70113;59.928;10.878;2023-09-08T12:28:52;19.83;;;16.15;;
80725;SDS011;70113;59.928;10.878;2023-09-08T12:31:17;23.80;;;18.63;;
80725;SDS011;70113;59.928;10.878;2023-09-08T12:33:43;21.58;;;16.55;;
80725;SDS011;70113;59.928;10.878;2023-09-08T12:36:16;20.92;;;16.30;;
80725;SDS011;70113;59.928;10.878;2023-09-08T12:39:03;20.70;;;16.92;;
80725;SDS011;70113;59.928;10.878;2023-09-08T12:41:30;15.70;;;13.73;;
80725;SDS011;70113;59.928;10.878;2023-09-08T12:43:55;17.25;;;14.90;;
80725;SDS011;70113;59.928;10.878;2023-09-08T12:46:21;18.20;;;14.45;;
80725;SDS011;70113;59.928;10.878;2023-09-08T12:48:46;17.00;;;15.20;;
80725;SDS011;70113;59.928;10.878;2023-09-08T12:51:12;17.42;;;14.73;;
80725;SDS011;70113;59.928;10.878;2023-09-08T12:53:38;17.63;;;14.27;;
80725;SDS011;70113;59.928;10.878;2023-09-08T12:56:03;16.73;;;13.02;;
80725;SDS011;70113;59.928;10.878;2023-09-08T12:58:29;18.15;;;14.27;;
80725;SDS011;70113;59.928;10.878;2023-09-08T13:00:55;16.25;;;14.15;;
80725;SDS011;70113;59.928;10.878;2023-09-08T13:03:21;17.67;;;15.32;;
80725;SDS011;70113;59.928;10.878;2023-09-08T13:05:47;17.80;;;14.52;;
80725;SDS011;70113;59.928;10.878;2023-09-08T13:08:12;16.92;;;14.32;;
80725;SDS011;70113;59.928;10.878;2023-09-08T13:10:40;13.90;;;12.20;;
80725;SDS011;70113;59.928;10.878;2023-09-08T13:13:06;17.55;;;13.13;;
80725;SDS011;70113;59.928;10.878;2023-09-08T13:15:32;15.07;;;13.48;;
80725;SDS011;70113;59.928;10.878;2023-09-08T13:17:57;16.60;;;13.60;;
80725;SDS011;70113;59.928;10.878;2023-09-08T13:20:23;16.20;;;12.90;;
80725;SDS011;70113;59.928;10.878;2023-09-08T13:22:49;16.20;;;13.05;;
80725;SDS011;70113;59.928;10.878;2023-09-08T13:25:15;15.50;;;13.20;;
80725;SDS011;70113;59.928;10.878;2023-09-08T13:27:41;14.25;;;12.13;;
80725;SDS011;70113;59.928;10.878;2023-09-08T13:30:13;14.70;;;12.32;;
80725;SDS011;70113;59.928;10.878;2023-09-08T13:32:40;14.05;;;12.23;;
80725;SDS011;70113;59.928;10.878;2023-09-08T13:35:07;17.60;;;13.68;;
80725;SDS011;70113;59.928;10.878;2023-09-08T13:37:32;16.63;;;12.82;;
80725;SDS011;70113;59.928;10.878;2023-09-08T13:40:02;14.98;;;12.13;;
80725;SDS011;70113;59.928;10.878;2023-09-08T13:42:29;14.38;;;12.07;;
80725;SDS011;70113;59.928;10.878;2023-09-08T13:44:54;13.75;;;11.57;;
80725;SDS011;70113;59.928;10.878;2023-09-08T13:47:20;15.32;;;11.30;;
80725;SDS011;70113;59.928;10.878;2023-09-08T13:49:46;16.10;;;13.25;;
80725;SDS011;70113;59.928;10.878;2023-09-08T13:52:13;15.63;;;13.40;;
80725;SDS011;70113;59.928;10.878;2023-09-08T13:54:38;14.25;;;12.25;;
80725;SDS011;70113;59.928;10.878;2023-09-08T13:57:05;16.08;;;13.15;;
80725;SDS011;70113;59.928;10.878;2023-09-08T13:59:30;16.30;;;13.18;;
80725;SDS011;70113;59.928;10.878;2023-09-08T14:01:56;15.18;;;12.75;;
80725;SDS011;70113;59.928;10.878;2023-09-08T14:04:27;18.30;;;14.25;;
80725;SDS011;70113;59.928;10.878;2023-09-08T14:06:52;15.82;;;13.27;;
80725;SDS011;70113;59.928;10.878;2023-09-08T14:09:18;19.90;;;15.48;;
80725;SDS011;70113;59.928;10.878;2023-09-08T14:11:44;16.50;;;12.68;;
80725;SDS011;70113;59.928;10.878;2023-09-08T14:14:10;14.80;;;12.95;;
80725;SDS011;70113;59.928;10.878;2023-09-08T14:16:36;19.77;;;15.25;;
80725;SDS011;70113;59.928;10.878;2023-09-08T14:19:02;18.52;;;15.02;;
80725;SDS011;70113;59.928;10.878;2023-09-08T14:21:27;20.05;;;15.40;;
80725;SDS011;70113;59.928;10.878;2023-09-08T14:23:53;20.70;;;14.98;;
80725;SDS011;70113;59.928;10.878;2023-09-08T14:26:19;20.40;;;16.35;;
80725;SDS011;70113;59.928;10.878;2023-09-08T14:28:46;21.98;;;15.85;;
80725;SDS011;70113;59.928;10.878;2023-09-08T14:31:11;20.38;;;14.80;;
80725;SDS011;70113;59.928;10.878;2023-09-08T14:33:37;21.65;;;16.35;;
80725;SDS011;70113;59.928;10.878;2023-09-08T14:36:03;19.70;;;16.08;;
80725;SDS011;70113;59.928;10.878;2023-09-08T14:38:29;20.20;;;15.70;;
80725;SDS011;70113;59.928;10.878;2023-09-08T14:40:55;20.48;;;15.35;;
80725;SDS011;70113;59.928;10.878;2023-09-08T14:43:23;21.10;;;16.38;;
80725;SDS011;70113;59.928;10.878;2023-09-08T14:45:49;21.63;;;16.67;;
80725;SDS011;70113;59.928;10.878;2023-09-08T14:48:14;20.38;;;14.80;;
80725;SDS011;70113;59.928;10.878;2023-09-08T14:50:40;23.80;;;16.98;;
80725;SDS011;70113;59.928;10.878;2023-09-08T14:53:06;22.98;;;16.70;;
80725;SDS011;70113;59.928;10.878;2023-09-08T14:55:32;22.45;;;18.50;;
80725;SDS011;70113;59.928;10.878;2023-09-08T14:57:58;24.25;;;17.10;;
80725;SDS011;70113;59.928;10.878;2023-09-08T15:00:23;22.20;;;17.35;;
80725;SDS011;70113;59.928;10.878;2023-09-08T15:02:49;22.17;;;16.88;;
80725;SDS011;70113;59.928;10.878;2023-09-08T15:05:15;19.00;;;14.63;;
80725;SDS011;70113;59.928;10.878;2023-09-08T15:07:41;24.42;;;17.08;;
80725;SDS011;70113;59.928;10.878;2023-09-08T15:10:06;21.88;;;17.27;;
80725;SDS011;70113;59.928;10.878;2023-09-08T15:12:32;24.77;;;17.60;;
80725;SDS011;70113;59.928;10.878;2023-09-08T15:14:58;21.92;;;16.30;;
80725;SDS011;70113;59.928;10.878;2023-09-08T15:17:23;24.42;;;17.73;;
80725;SDS011;70113;59.928;10.878;2023-09-08T15:19:49;27.35;;;18.80;;
80725;SDS011;70113;59.928;10.878;2023-09-08T15:22:15;30.40;;;19.38;;
80725;SDS011;70113;59.928;10.878;2023-09-08T15:24:40;25.55;;;18.98;;
80725;SDS011;70113;59.928;10.878;2023-09-08T15:27:06;29.77;;;20.92;;
80725;SDS011;70113;59.928;10.878;2023-09-08T15:29:32;30.65;;;20.73;;
80725;SDS011;70113;59.928;10.878;2023-09-08T15:31:58;31.55;;;20.35;;
80725;SDS011;70113;59.928;10.878;2023-09-08T15:34:23;29.08;;;20.83;;
80725;SDS011;70113;59.928;10.878;2023-09-08T15:36:49;30.27;;;21.20;;
80725;SDS011;70113;59.928;10.878;2023-09-08T15:39:15;31.70;;;21.75;;
80725;SDS011;70113;59.928;10.878;2023-09-08T15:41:41;33.75;;;22.02;;
80725;SDS011;70113;59.928;10.878;2023-09-08T15:44:06;33.97;;;23.17;;
80725;SDS011;70113;59.928;10.878;2023-09-08T15:46:32;37.55;;;24.30;;
80725;SDS011;70113;59.928;10.878;2023-09-08T15:48:58;38.72;;;25.08;;